KAIA

Alliance Municipal Airport

Alliance, Nebraska, USA
METAR KAIA 170753Z AUTO 04006KT 10SM OVC009 M01/M02 A2998 RMK AO2 SLP172 T10111022
Observed Flight Rules
Dec-17 @ 07:53 UTC (25 minutes ago) Instrument Flight Rules
Wind Visibility Clouds
40° at 6 knots 10 miles
  • Overcast at 900' AGL
Temperatures Readings
Current -1°C / 30°F
Dewpoint -2°C / 28°F
Humidity 93%
Altimeter 29.98" Hg
Pressure 1017.2 hPa
Elevation 1196
METAR KAIA 170753Z AUTO 04006KT 10SM OVC009 M01/M02 A2998 RMK AO2 SLP172 T10111022
Observed Flight Rules
Dec-17 @ 07:53 UTC
(25 minutes ago)
IFR
Wind Visibility
40° at 6 knots 10 miles
Clouds
  • Overcast at 900' AGL
Temperature Dewpoint
-1°C / 30°F -2°C / 28°F
Humidity Altimeter Pressure
93% 29.98" Hg 1017.2 hPa